sensor_id;sensor_type;location;lat;lon;timestamp;P1;durP1;ratioP1;P2;durP2;ratioP2
55372;SDS011;41249;47.838;16.490;2022-11-15T00:00:51;153.40;;;17.15;;
55372;SDS011;41249;47.838;16.490;2022-11-15T00:03:22;283.75;;;22.77;;
55372;SDS011;41249;47.838;16.490;2022-11-15T00:05:50;163.15;;;19.33;;
55372;SDS011;41249;47.838;16.490;2022-11-15T00:08:17;269.45;;;24.70;;
55372;SDS011;41249;47.838;16.490;2022-11-15T00:10:54;315.15;;;23.83;;
55372;SDS011;41249;47.838;16.490;2022-11-15T00:13:22;225.93;;;23.73;;
55372;SDS011;41249;47.838;16.490;2022-11-15T00:15:49;155.93;;;16.85;;
55372;SDS011;41249;47.838;16.490;2022-11-15T00:18:16;161.32;;;18.25;;
55372;SDS011;41249;47.838;16.490;2022-11-15T00:20:43;108.97;;;17.05;;
55372;SDS011;41249;47.838;16.490;2022-11-15T00:23:10;175.43;;;19.27;;
55372;SDS011;41249;47.838;16.490;2022-11-15T00:25:37;202.80;;;19.90;;
55372;SDS011;41249;47.838;16.490;2022-11-15T00:28:03;184.88;;;19.08;;
55372;SDS011;41249;47.838;16.490;2022-11-15T00:30:30;223.18;;;22.10;;
55372;SDS011;41249;47.838;16.490;2022-11-15T00:32:56;117.20;;;15.02;;
55372;SDS011;41249;47.838;16.490;2022-11-15T00:35:28;241.32;;;21.38;;
55372;SDS011;41249;47.838;16.490;2022-11-15T00:37:54;247.30;;;20.67;;
55372;SDS011;41249;47.838;16.490;2022-11-15T00:40:21;175.93;;;16.92;;
55372;SDS011;41249;47.838;16.490;2022-11-15T00:42:47;248.98;;;22.42;;
55372;SDS011;41249;47.838;16.490;2022-11-15T00:45:14;177.55;;;18.88;;
55372;SDS011;41249;47.838;16.490;2022-11-15T00:47:43;229.52;;;20.60;;
55372;SDS011;41249;47.838;16.490;2022-11-15T00:50:11;291.98;;;22.70;;
55372;SDS011;41249;47.838;16.490;2022-11-15T00:52:40;174.02;;;18.33;;
55372;SDS011;41249;47.838;16.490;2022-11-15T00:55:09;222.35;;;21.17;;
55372;SDS011;41249;47.838;16.490;2022-11-15T00:57:40;150.02;;;16.73;;
55372;SDS011;41249;47.838;16.490;2022-11-15T01:00:07;238.65;;;22.58;;
55372;SDS011;41249;47.838;16.490;2022-11-15T01:02:34;184.18;;;17.42;;
55372;SDS011;41249;47.838;16.490;2022-11-15T01:05:01;261.92;;;19.58;;
55372;SDS011;41249;47.838;16.490;2022-11-15T01:07:28;302.17;;;22.35;;
55372;SDS011;41249;47.838;16.490;2022-11-15T01:09:54;141.38;;;15.05;;
55372;SDS011;41249;47.838;16.490;2022-11-15T01:12:21;245.77;;;21.30;;
55372;SDS011;41249;47.838;16.490;2022-11-15T01:14:49;155.65;;;15.23;;
55372;SDS011;41249;47.838;16.490;2022-11-15T01:17:15;106.57;;;14.32;;
55372;SDS011;41249;47.838;16.490;2022-11-15T01:19:42;184.95;;;16.38;;
55372;SDS011;41249;47.838;16.490;2022-11-15T01:22:08;220.48;;;18.52;;
55372;SDS011;41249;47.838;16.490;2022-11-15T01:24:35;213.15;;;15.68;;
55372;SDS011;41249;47.838;16.490;2022-11-15T01:27:02;148.40;;;14.98;;
55372;SDS011;41249;47.838;16.490;2022-11-15T01:29:28;335.65;;;22.63;;
55372;SDS011;41249;47.838;16.490;2022-11-15T01:31:55;175.95;;;16.08;;
55372;SDS011;41249;47.838;16.490;2022-11-15T01:34:21;231.10;;;18.90;;
55372;SDS011;41249;47.838;16.490;2022-11-15T01:36:48;226.15;;;16.70;;
55372;SDS011;41249;47.838;16.490;2022-11-15T01:39:14;183.68;;;17.10;;
55372;SDS011;41249;47.838;16.490;2022-11-15T01:41:41;160.63;;;15.82;;
55372;SDS011;41249;47.838;16.490;2022-11-15T01:47:03;280.33;;;19.70;;
55372;SDS011;41249;47.838;16.490;2022-11-15T01:49:35;119.47;;;14.63;;
55372;SDS011;41249;47.838;16.490;2022-11-15T01:52:09;130.02;;;12.25;;
55372;SDS011;41249;47.838;16.490;2022-11-15T01:54:41;274.88;;;19.15;;
55372;SDS011;41249;47.838;16.490;2022-11-15T01:57:09;220.07;;;16.27;;
55372;SDS011;41249;47.838;16.490;2022-11-15T01:59:37;240.93;;;19.77;;
55372;SDS011;41249;47.838;16.490;2022-11-15T02:02:08;193.90;;;15.25;;
55372;SDS011;41249;47.838;16.490;2022-11-15T02:04:36;211.98;;;18.17;;
55372;SDS011;41249;47.838;16.490;2022-11-15T02:07:06;312.88;;;21.38;;
55372;SDS011;41249;47.838;16.490;2022-11-15T02:09:36;83.28;;;10.82;;
55372;SDS011;41249;47.838;16.490;2022-11-15T02:12:03;273.45;;;18.77;;
55372;SDS011;41249;47.838;16.490;2022-11-15T02:14:33;232.75;;;18.15;;
55372;SDS011;41249;47.838;16.490;2022-11-15T02:17:09;233.73;;;17.20;;
55372;SDS011;41249;47.838;16.490;2022-11-15T02:42:27;280.10;;;18.90;;
55372;SDS011;41249;47.838;16.490;2022-11-15T02:45:18;263.27;;;18.33;;
55372;SDS011;41249;47.838;16.490;2022-11-15T02:47:54;320.63;;;21.65;;
55372;SDS011;41249;47.838;16.490;2022-11-15T02:50:25;225.65;;;18.52;;
55372;SDS011;41249;47.838;16.490;2022-11-15T02:52:54;214.82;;;16.77;;
55372;SDS011;41249;47.838;16.490;2022-11-15T02:55:42;133.50;;;14.55;;
55372;SDS011;41249;47.838;16.490;2022-11-15T03:06:27;173.70;;;15.15;;
55372;SDS011;41249;47.838;16.490;2022-11-15T03:08:57;158.50;;;14.80;;
55372;SDS011;41249;47.838;16.490;2022-11-15T03:11:35;198.10;;;14.80;;
55372;SDS011;41249;47.838;16.490;2022-11-15T03:16:50;270.80;;;19.05;;
55372;SDS011;41249;47.838;16.490;2022-11-15T03:19:47;267.52;;;19.10;;
55372;SDS011;41249;47.838;16.490;2022-11-15T03:22:23;109.65;;;12.10;;
55372;SDS011;41249;47.838;16.490;2022-11-15T03:24:53;243.13;;;17.77;;
55372;SDS011;41249;47.838;16.490;2022-11-15T03:27:24;174.20;;;17.25;;
55372;SDS011;41249;47.838;16.490;2022-11-15T03:29:55;249.88;;;18.05;;
55372;SDS011;41249;47.838;16.490;2022-11-15T03:32:30;190.30;;;14.68;;
55372;SDS011;41249;47.838;16.490;2022-11-15T03:35:11;116.93;;;13.10;;
55372;SDS011;41249;47.838;16.490;2022-11-15T03:40:37;273.55;;;17.05;;
55372;SDS011;41249;47.838;16.490;2022-11-15T03:43:28;197.85;;;16.92;;
55372;SDS011;41249;47.838;16.490;2022-11-15T03:46:07;168.20;;;14.68;;
55372;SDS011;41249;47.838;16.490;2022-11-15T03:48:41;215.32;;;18.50;;
55372;SDS011;41249;47.838;16.490;2022-11-15T03:51:12;313.92;;;19.70;;
55372;SDS011;41249;47.838;16.490;2022-11-15T03:53:40;124.18;;;13.15;;
55372;SDS011;41249;47.838;16.490;2022-11-15T03:56:07;380.00;;;20.33;;
55372;SDS011;41249;47.838;16.490;2022-11-15T03:58:33;126.78;;;11.73;;
55372;SDS011;41249;47.838;16.490;2022-11-15T04:01:00;288.60;;;18.90;;
55372;SDS011;41249;47.838;16.490;2022-11-15T04:03:27;270.25;;;18.08;;
55372;SDS011;41249;47.838;16.490;2022-11-15T04:05:53;303.20;;;19.38;;
55372;SDS011;41249;47.838;16.490;2022-11-15T04:08:20;267.15;;;15.52;;
55372;SDS011;41249;47.838;16.490;2022-11-15T04:10:48;195.77;;;13.35;;
55372;SDS011;41249;47.838;16.490;2022-11-15T04:13:15;325.00;;;18.52;;
55372;SDS011;41249;47.838;16.490;2022-11-15T04:15:42;326.67;;;18.05;;
55372;SDS011;41249;47.838;16.490;2022-11-15T04:18:08;205.55;;;14.90;;
55372;SDS011;41249;47.838;16.490;2022-11-15T04:20:35;190.55;;;13.43;;
55372;SDS011;41249;47.838;16.490;2022-11-15T04:23:21;236.10;;;18.40;;
55372;SDS011;41249;47.838;16.490;2022-11-15T04:26:11;152.60;;;12.85;;
55372;SDS011;41249;47.838;16.490;2022-11-15T04:28:40;209.90;;;14.68;;
55372;SDS011;41249;47.838;16.490;2022-11-15T04:31:26;281.10;;;18.83;;
55372;SDS011;41249;47.838;16.490;2022-11-15T04:33:53;158.68;;;15.23;;
55372;SDS011;41249;47.838;16.490;2022-11-15T04:36:20;116.63;;;11.57;;
55372;SDS011;41249;47.838;16.490;2022-11-15T04:39:05;126.28;;;11.90;;
55372;SDS011;41249;47.838;16.490;2022-11-15T04:41:32;182.27;;;14.48;;
55372;SDS011;41249;47.838;16.490;2022-11-15T04:43:59;275.33;;;16.80;;
55372;SDS011;41249;47.838;16.490;2022-11-15T04:46:25;157.05;;;12.77;;
55372;SDS011;41249;47.838;16.490;2022-11-15T04:48:52;141.15;;;13.35;;
55372;SDS011;41249;47.838;16.490;2022-11-15T04:51:24;277.60;;;18.85;;
55372;SDS011;41249;47.838;16.490;2022-11-15T04:53:51;115.32;;;12.75;;
55372;SDS011;41249;47.838;16.490;2022-11-15T04:56:17;243.32;;;16.38;;
55372;SDS011;41249;47.838;16.490;2022-11-15T04:58:44;188.50;;;13.95;;
55372;SDS011;41249;47.838;16.490;2022-11-15T05:01:11;279.05;;;17.95;;
55372;SDS011;41249;47.838;16.490;2022-11-15T05:03:41;270.55;;;16.10;;
55372;SDS011;41249;47.838;16.490;2022-11-15T05:06:29;295.13;;;16.35;;
55372;SDS011;41249;47.838;16.490;2022-11-15T05:08:56;78.35;;;12.27;;
55372;SDS011;41249;47.838;16.490;2022-11-15T05:11:22;233.93;;;16.40;;
55372;SDS011;41249;47.838;16.490;2022-11-15T05:13:49;168.85;;;15.27;;
55372;SDS011;41249;47.838;16.490;2022-11-15T05:16:16;57.15;;;10.43;;
55372;SDS011;41249;47.838;16.490;2022-11-15T05:18:43;226.98;;;16.25;;
55372;SDS011;41249;47.838;16.490;2022-11-15T05:21:11;161.80;;;13.13;;
55372;SDS011;41249;47.838;16.490;2022-11-15T05:23:39;222.25;;;16.15;;
55372;SDS011;41249;47.838;16.490;2022-11-15T05:26:06;166.23;;;15.27;;
55372;SDS011;41249;47.838;16.490;2022-11-15T05:28:35;102.45;;;11.93;;
55372;SDS011;41249;47.838;16.490;2022-11-15T05:31:20;101.40;;;12.50;;
55372;SDS011;41249;47.838;16.490;2022-11-15T05:33:48;87.90;;;11.40;;
55372;SDS011;41249;47.838;16.490;2022-11-15T05:38:57;147.48;;;12.45;;
55372;SDS011;41249;47.838;16.490;2022-11-15T05:41:26;200.95;;;13.30;;
55372;SDS011;41249;47.838;16.490;2022-11-15T05:43:58;188.50;;;14.40;;
55372;SDS011;41249;47.838;16.490;2022-11-15T05:46:26;240.07;;;15.18;;
55372;SDS011;41249;47.838;16.490;2022-11-15T05:48:53;84.63;;;9.45;;
55372;SDS011;41249;47.838;16.490;2022-11-15T05:51:22;263.05;;;17.13;;
55372;SDS011;41249;47.838;16.490;2022-11-15T05:53:49;311.10;;;19.05;;
55372;SDS011;41249;47.838;16.490;2022-11-15T05:56:17;65.90;;;11.05;;
55372;SDS011;41249;47.838;16.490;2022-11-15T05:58:44;128.75;;;13.23;;
55372;SDS011;41249;47.838;16.490;2022-11-15T06:01:11;164.65;;;13.77;;
55372;SDS011;41249;47.838;16.490;2022-11-15T06:03:37;166.80;;;15.77;;
55372;SDS011;41249;47.838;16.490;2022-11-15T06:06:04;61.85;;;9.75;;
55372;SDS011;41249;47.838;16.490;2022-11-15T06:08:31;238.82;;;13.75;;
55372;SDS011;41249;47.838;16.490;2022-11-15T06:11:02;238.05;;;15.93;;
55372;SDS011;41249;47.838;16.490;2022-11-15T06:13:33;173.75;;;13.00;;
55372;SDS011;41249;47.838;16.490;2022-11-15T06:16:00;177.10;;;12.52;;
55372;SDS011;41249;47.838;16.490;2022-11-15T06:18:27;117.35;;;11.68;;
55372;SDS011;41249;47.838;16.490;2022-11-15T06:20:53;147.48;;;12.75;;
55372;SDS011;41249;47.838;16.490;2022-11-15T06:23:25;91.80;;;10.10;;
55372;SDS011;41249;47.838;16.490;2022-11-15T06:25:51;304.50;;;18.08;;
55372;SDS011;41249;47.838;16.490;2022-11-15T06:28:18;66.00;;;9.32;;
55372;SDS011;41249;47.838;16.490;2022-11-15T06:30:44;88.07;;;10.27;;
55372;SDS011;41249;47.838;16.490;2022-11-15T06:33:18;144.73;;;13.85;;
55372;SDS011;41249;47.838;16.490;2022-11-15T06:35:44;242.30;;;16.98;;
55372;SDS011;41249;47.838;16.490;2022-11-15T06:38:11;84.15;;;14.40;;
55372;SDS011;41249;47.838;16.490;2022-11-15T06:40:38;104.88;;;14.55;;
55372;SDS011;41249;47.838;16.490;2022-11-15T06:43:05;121.57;;;13.38;;
55372;SDS011;41249;47.838;16.490;2022-11-15T06:45:32;86.90;;;14.10;;
55372;SDS011;41249;47.838;16.490;2022-11-15T06:47:59;168.85;;;14.50;;
55372;SDS011;41249;47.838;16.490;2022-11-15T06:50:25;118.05;;;12.38;;
55372;SDS011;41249;47.838;16.490;2022-11-15T06:52:52;62.60;;;10.90;;
55372;SDS011;41249;47.838;16.490;2022-11-15T06:55:18;252.15;;;17.42;;
55372;SDS011;41249;47.838;16.490;2022-11-15T06:57:48;89.68;;;11.20;;
55372;SDS011;41249;47.838;16.490;2022-11-15T07:00:17;102.68;;;12.90;;
55372;SDS011;41249;47.838;16.490;2022-11-15T07:02:45;141.70;;;14.02;;
55372;SDS011;41249;47.838;16.490;2022-11-15T07:05:13;181.63;;;14.93;;
55372;SDS011;41249;47.838;16.490;2022-11-15T07:07:41;119.43;;;13.40;;
55372;SDS011;41249;47.838;16.490;2022-11-15T07:10:08;130.02;;;15.82;;
55372;SDS011;41249;47.838;16.490;2022-11-15T07:12:34;182.80;;;13.88;;
55372;SDS011;41249;47.838;16.490;2022-11-15T07:15:01;58.90;;;10.65;;
55372;SDS011;41249;47.838;16.490;2022-11-15T07:17:28;111.25;;;13.57;;
55372;SDS011;41249;47.838;16.490;2022-11-15T07:19:54;59.92;;;14.18;;
55372;SDS011;41249;47.838;16.490;2022-11-15T07:22:21;111.85;;;15.40;;
55372;SDS011;41249;47.838;16.490;2022-11-15T07:24:47;49.35;;;12.43;;
55372;SDS011;41249;47.838;16.490;2022-11-15T07:27:14;86.15;;;12.75;;
55372;SDS011;41249;47.838;16.490;2022-11-15T07:29:41;68.63;;;13.63;;
55372;SDS011;41249;47.838;16.490;2022-11-15T07:32:07;47.00;;;9.15;;
55372;SDS011;41249;47.838;16.490;2022-11-15T07:34:35;118.85;;;14.07;;
55372;SDS011;41249;47.838;16.490;2022-11-15T07:37:01;65.80;;;14.73;;
55372;SDS011;41249;47.838;16.490;2022-11-15T07:39:28;57.30;;;11.57;;
55372;SDS011;41249;47.838;16.490;2022-11-15T07:41:55;166.15;;;16.35;;
55372;SDS011;41249;47.838;16.490;2022-11-15T07:44:41;136.23;;;15.32;;
55372;SDS011;41249;47.838;16.490;2022-11-15T07:47:08;175.48;;;16.38;;
55372;SDS011;41249;47.838;16.490;2022-11-15T07:49:34;113.00;;;12.65;;
55372;SDS011;41249;47.838;16.490;2022-11-15T07:52:01;35.92;;;11.10;;
55372;SDS011;41249;47.838;16.490;2022-11-15T07:54:27;174.05;;;15.88;;
55372;SDS011;41249;47.838;16.490;2022-11-15T07:56:54;101.20;;;12.35;;
55372;SDS011;41249;47.838;16.490;2022-11-15T07:59:21;160.02;;;15.25;;
55372;SDS011;41249;47.838;16.490;2022-11-15T08:01:47;145.23;;;13.57;;
55372;SDS011;41249;47.838;16.490;2022-11-15T08:04:14;146.65;;;13.32;;
55372;SDS011;41249;47.838;16.490;2022-11-15T08:06:41;77.05;;;12.93;;
55372;SDS011;41249;47.838;16.490;2022-11-15T08:09:07;89.97;;;13.38;;
55372;SDS011;41249;47.838;16.490;2022-11-15T08:11:34;66.13;;;11.52;;
55372;SDS011;41249;47.838;16.490;2022-11-15T08:14:00;162.88;;;13.48;;
55372;SDS011;41249;47.838;16.490;2022-11-15T08:16:27;125.32;;;12.75;;
55372;SDS011;41249;47.838;16.490;2022-11-15T08:18:53;77.15;;;11.90;;
55372;SDS011;41249;47.838;16.490;2022-11-15T08:21:20;63.63;;;12.52;;
55372;SDS011;41249;47.838;16.490;2022-11-15T08:23:47;132.38;;;15.30;;
55372;SDS011;41249;47.838;16.490;2022-11-15T08:26:14;147.60;;;14.93;;
55372;SDS011;41249;47.838;16.490;2022-11-15T08:28:41;184.00;;;14.75;;
55372;SDS011;41249;47.838;16.490;2022-11-15T08:31:15;177.95;;;13.88;;
55372;SDS011;41249;47.838;16.490;2022-11-15T08:33:44;90.93;;;13.00;;
55372;SDS011;41249;47.838;16.490;2022-11-15T08:36:14;64.55;;;11.80;;
55372;SDS011;41249;47.838;16.490;2022-11-15T08:38:42;160.32;;;17.50;;
55372;SDS011;41249;47.838;16.490;2022-11-15T08:41:11;59.33;;;11.27;;
55372;SDS011;41249;47.838;16.490;2022-11-15T08:46:11;206.18;;;18.95;;
55372;SDS011;41249;47.838;16.490;2022-11-15T08:48:39;70.45;;;12.15;;
55372;SDS011;41249;47.838;16.490;2022-11-15T08:51:06;142.25;;;17.73;;
55372;SDS011;41249;47.838;16.490;2022-11-15T08:53:33;83.35;;;15.25;;
55372;SDS011;41249;47.838;16.490;2022-11-15T08:56:00;39.22;;;11.48;;
55372;SDS011;41249;47.838;16.490;2022-11-15T08:58:27;27.05;;;10.73;;
55372;SDS011;41249;47.838;16.490;2022-11-15T09:00:54;83.25;;;15.38;;
55372;SDS011;41249;47.838;16.490;2022-11-15T09:03:20;45.85;;;12.93;;
55372;SDS011;41249;47.838;16.490;2022-11-15T09:05:47;71.75;;;16.00;;
55372;SDS011;41249;47.838;16.490;2022-11-15T09:08:14;40.40;;;14.02;;
55372;SDS011;41249;47.838;16.490;2022-11-15T09:11:05;44.95;;;15.60;;
55372;SDS011;41249;47.838;16.490;2022-11-15T09:13:32;63.45;;;15.35;;
55372;SDS011;41249;47.838;16.490;2022-11-15T09:16:00;51.40;;;17.38;;
55372;SDS011;41249;47.838;16.490;2022-11-15T09:18:27;39.65;;;13.20;;
55372;SDS011;41249;47.838;16.490;2022-11-15T09:20:56;42.85;;;14.85;;
55372;SDS011;41249;47.838;16.490;2022-11-15T09:23:23;48.00;;;16.40;;
55372;SDS011;41249;47.838;16.490;2022-11-15T09:25:51;37.47;;;13.82;;
55372;SDS011;41249;47.838;16.490;2022-11-15T09:28:19;35.72;;;13.57;;
55372;SDS011;41249;47.838;16.490;2022-11-15T09:30:45;33.83;;;13.45;;
55372;SDS011;41249;47.838;16.490;2022-11-15T09:33:12;26.77;;;11.38;;
55372;SDS011;41249;47.838;16.490;2022-11-15T09:35:39;30.00;;;11.13;;
55372;SDS011;41249;47.838;16.490;2022-11-15T09:38:07;32.28;;;14.13;;
55372;SDS011;41249;47.838;16.490;2022-11-15T09:40:35;33.42;;;13.65;;
55372;SDS011;41249;47.838;16.490;2022-11-15T09:43:10;38.83;;;14.95;;
55372;SDS011;41249;47.838;16.490;2022-11-15T09:45:48;41.63;;;15.45;;
55372;SDS011;41249;47.838;16.490;2022-11-15T09:48:51;35.13;;;11.63;;
55372;SDS011;41249;47.838;16.490;2022-11-15T09:51:33;32.70;;;12.13;;
55372;SDS011;41249;47.838;16.490;2022-11-15T09:56:56;28.00;;;12.27;;
55372;SDS011;41249;47.838;16.490;2022-11-15T10:02:57;38.97;;;14.05;;
55372;SDS011;41249;47.838;16.490;2022-11-15T10:05:35;28.17;;;12.75;;
55372;SDS011;41249;47.838;16.490;2022-11-15T10:08:11;30.17;;;12.65;;
55372;SDS011;41249;47.838;16.490;2022-11-15T10:10:59;33.42;;;14.65;;
55372;SDS011;41249;47.838;16.490;2022-11-15T10:13:48;29.38;;;13.90;;
55372;SDS011;41249;47.838;16.490;2022-11-15T10:19:28;30.38;;;14.50;;
55372;SDS011;41249;47.838;16.490;2022-11-15T10:24:41;27.42;;;13.15;;
55372;SDS011;41249;47.838;16.490;2022-11-15T10:27:11;24.98;;;11.95;;
55372;SDS011;41249;47.838;16.490;2022-11-15T10:29:44;33.05;;;14.60;;
55372;SDS011;41249;47.838;16.490;2022-11-15T10:32:12;32.17;;;13.75;;
55372;SDS011;41249;47.838;16.490;2022-11-15T10:34:41;26.83;;;13.48;;
55372;SDS011;41249;47.838;16.490;2022-11-15T10:37:08;28.17;;;12.43;;
55372;SDS011;41249;47.838;16.490;2022-11-15T10:39:35;29.90;;;11.90;;
55372;SDS011;41249;47.838;16.490;2022-11-15T10:42:18;33.15;;;16.38;;
55372;SDS011;41249;47.838;16.490;2022-11-15T10:44:52;34.50;;;15.05;;
55372;SDS011;41249;47.838;16.490;2022-11-15T10:47:24;24.80;;;10.60;;
55372;SDS011;41249;47.838;16.490;2022-11-15T10:49:56;27.73;;;13.20;;
55372;SDS011;41249;47.838;16.490;2022-11-15T10:52:32;29.15;;;13.05;;
55372;SDS011;41249;47.838;16.490;2022-11-15T10:57:37;26.95;;;10.88;;
55372;SDS011;41249;47.838;16.490;2022-11-15T11:02:56;29.75;;;13.48;;
55372;SDS011;41249;47.838;16.490;2022-11-15T11:05:50;23.17;;;11.63;;
55372;SDS011;41249;47.838;16.490;2022-11-15T11:08:33;25.77;;;12.07;;
55372;SDS011;41249;47.838;16.490;2022-11-15T11:11:00;27.02;;;13.98;;
55372;SDS011;41249;47.838;16.490;2022-11-15T11:13:33;29.38;;;14.38;;
55372;SDS011;41249;47.838;16.490;2022-11-15T11:16:17;31.08;;;14.25;;
55372;SDS011;41249;47.838;16.490;2022-11-15T11:21:46;30.15;;;14.50;;
55372;SDS011;41249;47.838;16.490;2022-11-15T11:30:14;33.40;;;15.30;;
55372;SDS011;41249;47.838;16.490;2022-11-15T11:35:39;28.55;;;13.77;;
55372;SDS011;41249;47.838;16.490;2022-11-15T11:48:52;31.98;;;16.00;;
55372;SDS011;41249;47.838;16.490;2022-11-15T11:51:28;29.85;;;13.48;;
55372;SDS011;41249;47.838;16.490;2022-11-15T11:54:03;28.45;;;14.43;;
55372;SDS011;41249;47.838;16.490;2022-11-15T11:56:36;27.27;;;13.48;;
55372;SDS011;41249;47.838;16.490;2022-11-15T11:59:23;28.90;;;12.27;;
55372;SDS011;41249;47.838;16.490;2022-11-15T12:01:58;30.52;;;13.98;;
55372;SDS011;41249;47.838;16.490;2022-11-15T12:04:38;22.08;;;12.98;;
55372;SDS011;41249;47.838;16.490;2022-11-15T12:07:11;30.15;;;14.05;;
55372;SDS011;41249;47.838;16.490;2022-11-15T12:09:48;30.85;;;15.90;;
55372;SDS011;41249;47.838;16.490;2022-11-15T12:14:53;31.65;;;15.75;;
55372;SDS011;41249;47.838;16.490;2022-11-15T12:17:24;27.48;;;13.70;;
55372;SDS011;41249;47.838;16.490;2022-11-15T12:19:58;29.92;;;14.70;;
55372;SDS011;41249;47.838;16.490;2022-11-15T12:27:52;31.98;;;14.10;;
55372;SDS011;41249;47.838;16.490;2022-11-15T12:30:23;38.30;;;16.83;;
55372;SDS011;41249;47.838;16.490;2022-11-15T12:32:54;34.80;;;16.45;;
55372;SDS011;41249;47.838;16.490;2022-11-15T12:35:34;31.88;;;16.00;;
55372;SDS011;41249;47.838;16.490;2022-11-15T12:38:03;33.38;;;15.85;;
55372;SDS011;41249;47.838;16.490;2022-11-15T12:45:42;32.90;;;15.75;;
55372;SDS011;41249;47.838;16.490;2022-11-15T13:07:03;33.33;;;17.33;;
55372;SDS011;41249;47.838;16.490;2022-11-15T13:12:03;37.45;;;18.52;;
55372;SDS011;41249;47.838;16.490;2022-11-15T13:14:57;35.67;;;15.98;;
55372;SDS011;41249;47.838;16.490;2022-11-15T13:19:58;29.60;;;14.55;;
55372;SDS011;41249;47.838;16.490;2022-11-15T13:22:32;26.50;;;14.18;;
55372;SDS011;41249;47.838;16.490;2022-11-15T13:28:09;38.88;;;18.13;;
55372;SDS011;41249;47.838;16.490;2022-11-15T13:30:49;28.35;;;15.35;;
55372;SDS011;41249;47.838;16.490;2022-11-15T13:33:34;25.92;;;13.38;;
55372;SDS011;41249;47.838;16.490;2022-11-15T13:36:06;30.77;;;14.98;;
55372;SDS011;41249;47.838;16.490;2022-11-15T13:38:42;29.25;;;13.95;;
55372;SDS011;41249;47.838;16.490;2022-11-15T13:41:19;26.88;;;14.50;;
55372;SDS011;41249;47.838;16.490;2022-11-15T13:43:48;24.73;;;12.15;;
55372;SDS011;41249;47.838;16.490;2022-11-15T13:46:23;27.77;;;15.00;;
55372;SDS011;41249;47.838;16.490;2022-11-15T13:51:40;26.73;;;13.95;;
55372;SDS011;41249;47.838;16.490;2022-11-15T13:56:45;22.80;;;12.05;;
55372;SDS011;41249;47.838;16.490;2022-11-15T13:59:22;25.13;;;12.20;;
55372;SDS011;41249;47.838;16.490;2022-11-15T14:01:51;22.10;;;11.52;;
55372;SDS011;41249;47.838;16.490;2022-11-15T14:04:19;23.40;;;11.60;;
55372;SDS011;41249;47.838;16.490;2022-11-15T14:06:50;20.92;;;11.65;;
55372;SDS011;41249;47.838;16.490;2022-11-15T14:12:00;17.63;;;9.68;;
55372;SDS011;41249;47.838;16.490;2022-11-15T14:14:29;20.13;;;11.43;;
55372;SDS011;41249;47.838;16.490;2022-11-15T14:17:00;22.48;;;11.50;;
55372;SDS011;41249;47.838;16.490;2022-11-15T14:24:42;21.30;;;9.75;;
55372;SDS011;41249;47.838;16.490;2022-11-15T14:27:25;22.08;;;11.73;;
55372;SDS011;41249;47.838;16.490;2022-11-15T14:29:53;24.00;;;12.77;;
55372;SDS011;41249;47.838;16.490;2022-11-15T14:32:24;25.02;;;11.40;;
55372;SDS011;41249;47.838;16.490;2022-11-15T14:34:59;21.92;;;11.63;;
55372;SDS011;41249;47.838;16.490;2022-11-15T14:37:28;22.58;;;11.05;;
55372;SDS011;41249;47.838;16.490;2022-11-15T14:40:00;20.35;;;10.05;;
55372;SDS011;41249;47.838;16.490;2022-11-15T14:42:28;23.08;;;12.40;;
55372;SDS011;41249;47.838;16.490;2022-11-15T14:44:54;20.02;;;10.80;;
55372;SDS011;41249;47.838;16.490;2022-11-15T14:47:21;18.98;;;9.63;;
55372;SDS011;41249;47.838;16.490;2022-11-15T14:49:47;21.80;;;11.50;;
55372;SDS011;41249;47.838;16.490;2022-11-15T14:54:47;18.58;;;11.13;;
55372;SDS011;41249;47.838;16.490;2022-11-15T14:57:13;23.33;;;10.52;;
55372;SDS011;41249;47.838;16.490;2022-11-15T14:59:40;25.05;;;12.93;;
55372;SDS011;41249;47.838;16.490;2022-11-15T15:02:17;18.23;;;10.05;;
55372;SDS011;41249;47.838;16.490;2022-11-15T15:04:48;20.77;;;10.68;;
55372;SDS011;41249;47.838;16.490;2022-11-15T15:07:16;18.02;;;9.35;;
55372;SDS011;41249;47.838;16.490;2022-11-15T15:09:43;19.60;;;11.25;;
55372;SDS011;41249;47.838;16.490;2022-11-15T15:12:18;21.10;;;11.88;;
55372;SDS011;41249;47.838;16.490;2022-11-15T15:14:49;16.52;;;8.20;;
55372;SDS011;41249;47.838;16.490;2022-11-15T15:17:16;21.75;;;12.23;;
55372;SDS011;41249;47.838;16.490;2022-11-15T15:19:43;25.02;;;10.80;;
55372;SDS011;41249;47.838;16.490;2022-11-15T15:22:14;19.65;;;9.32;;
55372;SDS011;41249;47.838;16.490;2022-11-15T15:24:45;16.75;;;8.73;;
55372;SDS011;41249;47.838;16.490;2022-11-15T15:27:12;17.25;;;9.15;;
55372;SDS011;41249;47.838;16.490;2022-11-15T15:29:39;24.50;;;10.68;;
55372;SDS011;41249;47.838;16.490;2022-11-15T15:32:06;22.42;;;10.90;;
55372;SDS011;41249;47.838;16.490;2022-11-15T15:34:34;20.00;;;11.00;;
55372;SDS011;41249;47.838;16.490;2022-11-15T15:37:08;17.10;;;8.93;;
55372;SDS011;41249;47.838;16.490;2022-11-15T15:39:37;20.58;;;11.63;;
55372;SDS011;41249;47.838;16.490;2022-11-15T15:42:04;20.80;;;9.18;;
55372;SDS011;41249;47.838;16.490;2022-11-15T15:44:30;23.13;;;10.13;;
55372;SDS011;41249;47.838;16.490;2022-11-15T15:46:57;23.80;;;11.48;;
55372;SDS011;41249;47.838;16.490;2022-11-15T15:49:24;23.95;;;11.70;;
55372;SDS011;41249;47.838;16.490;2022-11-15T15:51:50;23.85;;;12.77;;
55372;SDS011;41249;47.838;16.490;2022-11-15T15:54:17;19.65;;;10.25;;
55372;SDS011;41249;47.838;16.490;2022-11-15T15:56:43;20.40;;;10.38;;
55372;SDS011;41249;47.838;16.490;2022-11-15T15:59:10;18.30;;;10.48;;
55372;SDS011;41249;47.838;16.490;2022-11-15T16:01:36;22.58;;;11.38;;
55372;SDS011;41249;47.838;16.490;2022-11-15T16:04:03;24.30;;;12.40;;
55372;SDS011;41249;47.838;16.490;2022-11-15T16:06:33;21.88;;;11.35;;
55372;SDS011;41249;47.838;16.490;2022-11-15T16:09:02;20.25;;;10.50;;
55372;SDS011;41249;47.838;16.490;2022-11-15T16:11:46;22.02;;;11.65;;
55372;SDS011;41249;47.838;16.490;2022-11-15T16:14:13;19.88;;;11.35;;
55372;SDS011;41249;47.838;16.490;2022-11-15T16:16:39;22.98;;;11.65;;
55372;SDS011;41249;47.838;16.490;2022-11-15T16:19:07;22.95;;;12.43;;
55372;SDS011;41249;47.838;16.490;2022-11-15T16:21:36;23.33;;;11.90;;
55372;SDS011;41249;47.838;16.490;2022-11-15T16:24:03;18.85;;;9.85;;
55372;SDS011;41249;47.838;16.490;2022-11-15T16:26:30;22.58;;;11.80;;
55372;SDS011;41249;47.838;16.490;2022-11-15T16:29:00;23.30;;;12.18;;
55372;SDS011;41249;47.838;16.490;2022-11-15T16:31:27;22.40;;;10.02;;
55372;SDS011;41249;47.838;16.490;2022-11-15T16:33:53;21.50;;;11.57;;
55372;SDS011;41249;47.838;16.490;2022-11-15T16:36:21;24.00;;;11.23;;
55372;SDS011;41249;47.838;16.490;2022-11-15T16:38:55;23.95;;;11.48;;
55372;SDS011;41249;47.838;16.490;2022-11-15T16:41:22;18.45;;;9.70;;